createdAt,value
2018-05-04T00:02:01.833Z,1.30
2018-05-04T00:04:30.146Z,1.30
2018-05-04T00:06:58.481Z,1.20
2018-05-04T00:09:26.871Z,1.20
2018-05-04T00:11:55.250Z,1.10
2018-05-04T00:14:23.651Z,1.10
2018-05-04T00:16:52.782Z,1.10
2018-05-04T00:19:21.131Z,1.10
2018-05-04T00:21:49.464Z,1.00
2018-05-04T00:24:18.641Z,0.90
2018-05-04T00:26:47.083Z,0.90
2018-05-04T00:29:16.161Z,1.00
2018-05-04T00:31:44.495Z,1.00
2018-05-04T00:34:12.803Z,1.10
2018-05-04T00:36:42.053Z,1.00
2018-05-04T00:39:10.372Z,1.00
2018-05-04T00:41:38.868Z,1.00
2018-05-04T00:44:07.275Z,1.00
2018-05-04T00:46:35.572Z,1.00
2018-05-04T00:49:03.958Z,0.90
2018-05-04T00:51:32.258Z,0.80
2018-05-04T00:54:12.382Z,0.80
2018-05-04T00:56:40.875Z,0.70
2018-05-04T00:59:09.180Z,0.70
2018-05-04T01:01:38.327Z,0.70
2018-05-04T01:04:06.873Z,0.70
2018-05-04T01:06:36.025Z,1.00
2018-05-04T01:09:05.427Z,1.00
2018-05-04T01:11:33.759Z,1.00
2018-05-04T01:14:02.086Z,0.80
2018-05-04T01:16:30.400Z,0.80
2018-05-04T01:18:59.545Z,0.60
2018-05-04T01:21:28.007Z,0.60
2018-05-04T01:23:56.330Z,0.60
2018-05-04T01:26:24.650Z,0.70
2018-05-04T01:28:52.981Z,0.70
2018-05-04T01:31:21.388Z,0.80
2018-05-04T01:33:49.694Z,0.70
2018-05-04T01:36:18.174Z,0.80
2018-05-04T01:38:46.556Z,0.70
2018-05-04T01:41:14.867Z,0.70
2018-05-04T01:43:43.305Z,0.80
2018-05-04T01:46:12.362Z,0.70
2018-05-04T01:48:40.667Z,0.70
2018-05-04T01:51:09.808Z,0.70
2018-05-04T01:53:39.086Z,0.80
2018-05-04T01:56:07.453Z,0.80
2018-05-04T01:58:36.613Z,0.70
2018-05-04T02:01:04.904Z,0.70
2018-05-04T02:03:33.325Z,0.70
2018-05-04T02:06:01.687Z,0.70
2018-05-04T02:08:30.036Z,0.80
2018-05-04T02:10:58.352Z,0.80
2018-05-04T02:13:26.710Z,0.70
2018-05-04T02:15:55.821Z,0.50
2018-05-04T02:18:25.012Z,0.50
2018-05-04T02:20:54.113Z,0.40
2018-05-04T02:23:22.503Z,0.40
2018-05-04T02:25:51.011Z,0.40
2018-05-04T02:28:19.409Z,0.60
2018-05-04T02:30:47.904Z,0.70
2018-05-04T02:33:16.279Z,0.60
2018-05-04T02:35:44.666Z,0.50
2018-05-04T02:38:12.965Z,0.50
2018-05-04T02:40:42.096Z,0.50
2018-05-04T02:43:10.501Z,0.50
2018-05-04T02:45:38.843Z,0.60
2018-05-04T02:48:07.237Z,0.50
2018-05-04T02:50:35.572Z,0.50
2018-05-04T02:53:04.632Z,0.40
2018-05-04T02:55:33.054Z,0.40
2018-05-04T02:58:01.370Z,0.40
2018-05-04T03:00:35.845Z,0.40
2018-05-04T03:03:04.260Z,0.40
2018-05-04T03:05:32.651Z,0.50
2018-05-04T03:08:00.976Z,0.40
2018-05-04T03:10:29.397Z,0.40
2018-05-04T03:12:57.771Z,0.30
2018-05-04T03:15:26.180Z,0.20
2018-05-04T03:17:54.520Z,0.10
2018-05-04T03:20:23.628Z,-0.10
2018-05-04T03:22:52.732Z,-0.10
2018-05-04T03:25:21.039Z,-0.20
2018-05-04T03:27:50.148Z,-0.10
2018-05-04T03:30:18.495Z,-0.10
2018-05-04T03:32:46.957Z,-0.10
2018-05-04T03:35:15.285Z,-0.10
2018-05-04T03:37:44.664Z,-0.10
2018-05-04T03:40:13.012Z,-0.10
2018-05-04T03:42:41.380Z,0.00
2018-05-04T03:45:10.487Z,-0.10
2018-05-04T03:47:38.872Z,-0.20
2018-05-04T03:50:07.997Z,-0.10
2018-05-04T03:52:36.341Z,-0.20
2018-05-04T03:55:04.728Z,0.00
2018-05-04T03:57:45.562Z,-0.10
2018-05-04T04:00:25.634Z,-0.10
2018-05-04T04:06:01.582Z,-0.10
2018-05-04T04:08:30.008Z,-0.10
2018-05-04T04:10:59.184Z,0.00
2018-05-04T04:13:28.276Z,0.00
2018-05-04T04:15:56.672Z,0.00
2018-05-04T04:18:25.786Z,0.00
2018-05-04T04:20:54.163Z,-0.10
2018-05-04T04:23:23.226Z,0.00
2018-05-04T04:25:51.601Z,0.00
2018-05-04T04:28:20.008Z,0.00
2018-05-04T04:30:49.129Z,0.10
2018-05-04T04:33:17.480Z,0.10
2018-05-04T04:35:46.693Z,0.30
2018-05-04T04:38:15.782Z,0.30
2018-05-04T04:40:45.160Z,0.20
2018-05-04T04:43:13.537Z,0.20
2018-05-04T04:45:43.433Z,0.40
2018-05-04T04:48:12.549Z,0.50
2018-05-04T04:50:40.935Z,0.50
2018-05-04T04:53:10.103Z,0.50
2018-05-04T04:55:38.429Z,0.50
2018-05-04T04:58:07.505Z,0.50
2018-05-04T05:00:36.635Z,0.60
2018-05-04T05:03:04.999Z,0.50
2018-05-04T05:05:34.113Z,0.70
2018-05-04T05:08:02.437Z,0.70
2018-05-04T05:10:30.756Z,1.00
2018-05-04T05:12:59.134Z,1.10
2018-05-04T05:15:28.329Z,1.20
2018-05-04T05:17:56.912Z,1.20
2018-05-04T05:20:25.972Z,1.50
2018-05-04T05:22:54.277Z,1.40
2018-05-04T05:25:23.542Z,1.70
2018-05-04T05:27:51.945Z,1.60
2018-05-04T05:30:20.346Z,1.80
2018-05-04T05:32:49.475Z,2.00
2018-05-04T05:35:17.850Z,2.00
2018-05-04T05:37:46.334Z,2.10
2018-05-04T05:40:14.732Z,2.30
2018-05-04T05:42:43.074Z,2.30
2018-05-04T05:45:12.251Z,2.60
2018-05-04T05:47:41.368Z,2.80
2018-05-04T05:50:10.509Z,3.00
2018-05-04T05:52:38.919Z,3.00
2018-05-04T05:55:07.309Z,3.10
2018-05-04T05:57:36.770Z,3.30
2018-05-04T06:00:05.073Z,3.30
2018-05-04T06:02:34.303Z,3.80
2018-05-04T06:05:03.418Z,4.00
2018-05-04T06:07:31.899Z,4.00
2018-05-04T06:10:00.288Z,4.20
2018-05-04T06:12:28.612Z,4.50
2018-05-04T06:14:57.019Z,4.70
2018-05-04T06:17:25.505Z,4.90
2018-05-04T06:19:53.936Z,5.00
2018-05-04T06:22:22.489Z,5.30
2018-05-04T06:24:50.932Z,5.50
2018-05-04T06:27:20.006Z,5.90
2018-05-04T06:29:48.339Z,5.90
2018-05-04T06:32:16.701Z,6.20
2018-05-04T06:34:45.950Z,6.70
2018-05-04T06:37:14.435Z,6.70
2018-05-04T06:39:42.907Z,6.90
2018-05-04T06:42:11.271Z,7.20
2018-05-04T06:44:39.804Z,7.40
2018-05-04T06:47:08.289Z,7.60
2018-05-04T06:49:38.213Z,7.90
2018-05-04T06:52:07.393Z,8.10
2018-05-04T06:54:35.922Z,8.10
2018-05-04T06:57:04.308Z,8.30
2018-05-04T06:59:32.830Z,8.40
2018-05-04T07:02:01.332Z,8.50
2018-05-04T07:04:29.773Z,8.60
2018-05-04T07:06:58.294Z,8.80
2018-05-04T07:09:26.702Z,8.80
2018-05-04T07:11:55.055Z,9.00
2018-05-04T07:14:23.573Z,9.10
2018-05-04T07:16:53.065Z,9.20
2018-05-04T07:19:22.240Z,9.30
2018-05-04T07:21:50.651Z,9.20
2018-05-04T07:24:19.816Z,9.40
2018-05-04T07:26:48.207Z,9.40
2018-05-04T07:29:16.549Z,9.40
2018-05-04T07:31:45.007Z,9.50
2018-05-04T07:34:14.162Z,9.50
2018-05-04T07:36:43.683Z,9.60
2018-05-04T07:39:12.146Z,9.60
2018-05-04T07:41:40.533Z,9.70
2018-05-04T07:44:09.634Z,9.90
2018-05-04T07:46:38.948Z,9.90
2018-05-04T07:49:07.654Z,9.90
2018-05-04T07:51:36.060Z,10.00
2018-05-04T07:54:04.406Z,10.00
2018-05-04T07:56:36.639Z,10.10
2018-05-04T07:59:04.991Z,10.10
2018-05-04T08:01:33.423Z,10.20
2018-05-04T08:04:02.606Z,10.30
2018-05-04T08:06:32.019Z,10.40
2018-05-04T08:09:01.188Z,10.70
2018-05-04T08:11:29.494Z,10.60
2018-05-04T08:13:58.700Z,11.10
2018-05-04T08:16:27.913Z,11.30
2018-05-04T08:18:56.265Z,11.30
2018-05-04T08:21:25.464Z,12.00
2018-05-04T08:23:54.564Z,12.50
2018-05-04T08:26:23.070Z,12.50
2018-05-04T08:28:51.423Z,13.10
2018-05-04T08:31:20.552Z,14.30
2018-05-04T08:33:48.997Z,14.30
2018-05-04T08:36:17.352Z,14.70
2018-05-04T08:38:45.736Z,15.00
2018-05-04T08:41:14.993Z,14.70
2018-05-04T08:43:44.265Z,14.30
2018-05-04T08:46:13.516Z,13.80
2018-05-04T08:48:41.879Z,13.80
2018-05-04T08:51:10.316Z,13.70
2018-05-04T08:53:38.667Z,13.90
2018-05-04T08:56:08.716Z,13.80
2018-05-04T08:58:37.851Z,13.50
2018-05-04T09:01:06.271Z,13.50
2018-05-04T09:03:34.665Z,13.50
2018-05-04T09:06:03.811Z,13.70
2018-05-04T09:08:32.331Z,13.70
2018-05-04T09:11:00.749Z,13.80
2018-05-04T09:13:29.204Z,13.60
2018-05-04T09:15:58.354Z,13.70
2018-05-04T09:18:27.675Z,13.80
2018-05-04T09:20:56.384Z,13.80
2018-05-04T09:23:25.727Z,13.80
2018-05-04T09:25:54.174Z,13.80
2018-05-04T09:28:22.638Z,13.40
2018-05-04T09:30:51.096Z,13.40
2018-05-04T09:33:19.542Z,13.50
2018-05-04T09:35:48.717Z,13.90
2018-05-04T09:38:17.966Z,13.90
2018-05-04T09:40:46.412Z,13.90
2018-05-04T09:43:15.621Z,14.10
2018-05-04T09:45:44.304Z,14.10
2018-05-04T09:48:12.781Z,13.80
2018-05-04T09:50:41.953Z,13.40
2018-05-04T09:53:10.392Z,13.30
2018-05-04T09:55:38.860Z,13.30
2018-05-04T09:58:07.280Z,13.30
2018-05-04T10:00:35.676Z,13.30
2018-05-04T10:03:04.161Z,13.20
2018-05-04T10:05:32.734Z,13.20
2018-05-04T10:08:01.171Z,13.50
2018-05-04T10:10:29.529Z,13.50
2018-05-04T10:12:58.699Z,13.30
2018-05-04T10:15:27.072Z,13.30
2018-05-04T10:17:55.447Z,13.40
2018-05-04T10:20:24.644Z,14.10
2018-05-04T10:22:53.168Z,14.10
2018-05-04T10:25:22.243Z,14.30
2018-05-04T10:27:51.416Z,14.30
2018-05-04T10:30:19.871Z,14.30
2018-05-04T10:32:49.069Z,14.30
2018-05-04T10:35:17.426Z,14.30
2018-05-04T10:37:45.861Z,14.10
2018-05-04T10:40:15.031Z,13.60
2018-05-04T10:42:43.484Z,13.60
2018-05-04T10:45:12.731Z,13.30
2018-05-04T10:47:41.145Z,13.30
2018-05-04T10:50:10.388Z,13.70
2018-05-04T10:52:39.569Z,13.90
2018-05-04T10:55:08.041Z,13.90
2018-05-04T10:57:37.212Z,14.20
2018-05-04T11:00:06.367Z,14.20
2018-05-04T11:02:34.808Z,14.20
2018-05-04T11:05:03.950Z,14.50
2018-05-04T11:07:32.309Z,14.50
2018-05-04T11:10:00.805Z,14.20
2018-05-04T11:12:29.375Z,14.20
2018-05-04T11:14:57.866Z,14.40
2018-05-04T11:17:26.248Z,14.40
2018-05-04T11:19:54.640Z,14.50
2018-05-04T11:22:23.087Z,14.40
2018-05-04T11:24:51.486Z,14.50
2018-05-04T11:27:20.201Z,14.50
2018-05-04T11:29:48.589Z,14.40
2018-05-04T11:32:17.881Z,14.40
2018-05-04T11:34:46.358Z,14.40
2018-05-04T11:37:14.786Z,14.30
2018-05-04T11:39:43.424Z,14.40
2018-05-04T11:42:11.977Z,14.50
2018-05-04T11:44:40.578Z,14.40
2018-05-04T11:47:09.106Z,14.70
2018-05-04T11:49:37.671Z,14.80
2018-05-04T11:52:06.883Z,15.00
2018-05-04T11:54:35.469Z,14.90
2018-05-04T11:57:04.715Z,15.00
2018-05-04T11:59:33.196Z,14.90
2018-05-04T12:02:01.650Z,15.20
2018-05-04T12:04:30.114Z,15.30
2018-05-04T12:06:58.563Z,15.70
2018-05-04T12:09:27.236Z,15.90
2018-05-04T12:11:55.635Z,15.90
2018-05-04T12:14:24.094Z,15.30
2018-05-04T12:16:52.460Z,15.50
2018-05-04T12:19:21.604Z,15.40
2018-05-04T12:21:50.078Z,15.30
2018-05-04T12:24:18.442Z,15.60
2018-05-04T12:26:48.430Z,15.60
2018-05-04T12:29:16.867Z,15.60
2018-05-04T12:31:45.297Z,15.60
2018-05-04T12:34:14.627Z,16.00
2018-05-04T12:36:43.287Z,16.00
2018-05-04T12:39:11.752Z,15.80
2018-05-04T12:41:40.148Z,15.90
2018-05-04T12:44:08.637Z,15.70
2018-05-04T12:46:37.078Z,15.90
2018-05-04T12:49:06.222Z,16.00
2018-05-04T12:51:34.623Z,16.00
2018-05-04T12:54:03.018Z,16.10
2018-05-04T12:56:32.999Z,16.20
2018-05-04T12:59:01.468Z,16.20
2018-05-04T13:01:29.870Z,16.40
2018-05-04T13:03:58.265Z,16.50
2018-05-04T13:06:27.401Z,16.40
2018-05-04T13:08:55.777Z,16.30
2018-05-04T13:11:25.408Z,17.10
2018-05-04T13:13:54.696Z,18.00
2018-05-04T13:16:24.088Z,18.40
2018-05-04T13:18:53.296Z,18.70
2018-05-04T13:21:22.389Z,18.50
2018-05-04T13:23:51.612Z,18.20
2018-05-04T13:26:20.060Z,18.10
2018-05-04T13:28:48.553Z,18.10
2018-05-04T13:31:17.679Z,18.70
2018-05-04T13:33:46.056Z,18.60
2018-05-04T13:36:14.459Z,18.00
2018-05-04T13:38:43.702Z,17.80
2018-05-04T13:41:12.120Z,17.80
2018-05-04T13:43:40.509Z,17.90
2018-05-04T13:46:08.893Z,17.70
2018-05-04T13:48:37.270Z,17.80
2018-05-04T13:51:05.686Z,17.80
2018-05-04T13:53:34.172Z,17.60
2018-05-04T13:56:03.427Z,18.40
2018-05-04T13:58:31.817Z,18.30
2018-05-04T14:01:00.312Z,18.50
2018-05-04T14:03:28.725Z,18.00
2018-05-04T14:05:58.305Z,17.90
2018-05-04T14:08:27.026Z,17.90
2018-05-04T14:10:55.600Z,17.90
2018-05-04T14:13:24.730Z,18.00
2018-05-04T14:15:53.132Z,18.00
2018-05-04T14:18:21.551Z,18.20
2018-05-04T14:20:49.930Z,18.00
2018-05-04T14:23:18.432Z,18.30
2018-05-04T14:25:47.572Z,18.60
2018-05-04T14:28:15.952Z,18.60
2018-05-04T14:30:44.355Z,18.80
2018-05-04T14:33:12.711Z,18.70
2018-05-04T14:35:41.166Z,19.00
2018-05-04T14:38:09.617Z,19.90
2018-05-04T14:40:38.839Z,19.20
2018-05-04T14:43:08.035Z,19.50
2018-05-04T14:45:37.168Z,19.50
2018-05-04T14:48:05.660Z,19.40
2018-05-04T14:50:34.137Z,18.80
2018-05-04T14:53:04.054Z,19.30
2018-05-04T14:55:32.459Z,19.30
2018-05-04T14:58:01.688Z,18.30
2018-05-04T15:00:31.019Z,18.50
2018-05-04T15:02:59.388Z,18.50
2018-05-04T15:05:27.842Z,19.50
2018-05-04T15:07:56.952Z,19.50
2018-05-04T15:10:25.429Z,19.50
2018-05-04T15:12:53.898Z,19.20
2018-05-04T15:15:22.286Z,19.60
2018-05-04T15:17:50.773Z,19.00
2018-05-04T15:20:19.285Z,18.80
2018-05-04T15:22:47.765Z,18.60
2018-05-04T15:25:16.287Z,19.20
2018-05-04T15:27:44.777Z,19.20
2018-05-04T15:30:13.387Z,19.10
2018-05-04T15:32:41.982Z,19.60
2018-05-04T15:35:10.495Z,20.10
2018-05-04T15:37:39.953Z,19.90
2018-05-04T15:40:09.114Z,20.30
2018-05-04T15:42:40.062Z,19.40
2018-05-04T15:45:08.448Z,19.40
2018-05-04T15:47:36.938Z,18.70
2018-05-04T15:50:12.637Z,18.10
2018-05-04T15:52:41.149Z,18.10
2018-05-04T15:55:10.053Z,18.30
2018-05-04T15:57:38.394Z,19.00
2018-05-04T16:00:06.821Z,18.90
2018-05-04T16:02:35.338Z,19.20
2018-05-04T16:05:03.710Z,20.10
2018-05-04T16:07:32.143Z,20.40
2018-05-04T16:10:00.577Z,20.40
2018-05-04T16:12:29.051Z,20.50
2018-05-04T16:14:58.740Z,20.70
2018-05-04T16:17:27.284Z,20.70
2018-05-04T16:19:55.623Z,20.70
2018-05-04T16:22:24.052Z,20.80
2018-05-04T16:24:52.472Z,20.50
2018-05-04T16:27:21.572Z,20.50
2018-05-04T16:29:49.953Z,20.50
2018-05-04T16:32:19.235Z,19.60
2018-05-04T16:34:48.356Z,19.80
2018-05-04T16:37:16.784Z,19.80
2018-05-04T16:39:45.251Z,20.30
2018-05-04T16:42:13.697Z,19.80
2018-05-04T16:44:42.892Z,19.00
2018-05-04T16:47:17.570Z,18.90
2018-05-04T16:49:46.026Z,18.60
2018-05-04T16:52:14.413Z,18.20
2018-05-04T16:54:42.836Z,18.00
2018-05-04T16:57:11.256Z,18.50
2018-05-04T16:59:39.593Z,19.10
2018-05-04T17:02:08.096Z,18.50
2018-05-04T17:04:37.290Z,17.30
2018-05-04T17:07:06.386Z,17.80
2018-05-04T17:09:34.828Z,17.70
2018-05-04T17:12:03.316Z,18.70
2018-05-04T17:14:31.774Z,19.10
2018-05-04T17:17:00.464Z,19.60
2018-05-04T17:19:29.929Z,19.80
2018-05-04T17:21:58.537Z,19.20
2018-05-04T17:24:27.005Z,19.10
2018-05-04T17:26:55.454Z,19.20
2018-05-04T17:29:23.932Z,19.00
2018-05-04T17:31:53.049Z,18.60
2018-05-04T17:34:22.007Z,18.60
2018-05-04T17:36:50.563Z,18.40
2018-05-04T17:39:18.933Z,18.00
2018-05-04T17:41:47.466Z,16.80
2018-05-04T17:44:15.988Z,16.10
2018-05-04T17:46:44.538Z,15.40
2018-05-04T17:49:12.917Z,15.00
2018-05-04T17:51:41.484Z,14.50
2018-05-04T17:54:09.941Z,14.20
2018-05-04T17:56:38.394Z,14.10
2018-05-04T17:59:07.946Z,13.90
2018-05-04T18:01:36.291Z,13.90
2018-05-04T18:04:04.772Z,13.70
2018-05-04T18:06:33.216Z,13.60
2018-05-04T18:09:02.357Z,13.70
2018-05-04T18:11:30.740Z,13.70
2018-05-04T18:13:59.203Z,13.90
2018-05-04T18:16:27.653Z,13.60
2018-05-04T18:18:56.092Z,13.40
2018-05-04T18:21:24.522Z,13.10
2018-05-04T18:23:53.656Z,12.70
2018-05-04T18:26:22.095Z,12.70
2018-05-04T18:28:50.500Z,12.50
2018-05-04T18:31:19.653Z,12.30
2018-05-04T18:33:48.050Z,12.30
2018-05-04T18:36:16.449Z,12.20
2018-05-04T18:38:44.843Z,12.00
2018-05-04T18:41:14.018Z,11.90
2018-05-04T18:43:42.403Z,11.90
2018-05-04T18:46:11.721Z,11.70
2018-05-04T18:48:40.230Z,11.60
2018-05-04T18:51:08.654Z,11.50
2018-05-04T18:53:37.155Z,11.40
2018-05-04T18:56:06.483Z,11.20
2018-05-04T18:58:34.937Z,11.20
2018-05-04T19:01:03.242Z,11.10
2018-05-04T19:03:31.773Z,11.00
2018-05-04T19:06:00.286Z,10.90
2018-05-04T19:08:29.442Z,10.70
2018-05-04T19:10:57.847Z,10.70
2018-05-04T19:13:27.089Z,10.50
2018-05-04T19:15:55.773Z,10.40
2018-05-04T19:18:24.409Z,10.40
2018-05-04T19:20:52.758Z,10.30
2018-05-04T19:23:21.206Z,10.30
2018-05-04T19:25:50.385Z,10.10
2018-05-04T19:28:19.614Z,10.00
2018-05-04T19:30:47.956Z,10.00
2018-05-04T19:33:16.394Z,9.90
2018-05-04T19:35:45.135Z,9.80
2018-05-04T19:38:13.924Z,9.80
2018-05-04T19:40:42.550Z,9.70
2018-05-04T19:43:10.935Z,9.70
2018-05-04T19:45:39.338Z,9.80
2018-05-04T19:48:07.751Z,9.70
2018-05-04T19:50:36.933Z,9.40
2018-05-04T19:53:05.325Z,9.40
2018-05-04T19:55:34.473Z,9.30
2018-05-04T19:58:02.840Z,9.20
2018-05-04T20:00:32.127Z,9.10
2018-05-04T20:03:01.193Z,8.80
2018-05-04T20:05:30.451Z,8.70
2018-05-04T20:07:59.968Z,8.50
2018-05-04T20:10:29.106Z,8.50
2018-05-04T20:12:58.312Z,8.40
2018-05-04T20:15:27.423Z,8.30
2018-05-04T20:17:55.742Z,8.30
2018-05-04T20:20:24.164Z,8.20
2018-05-04T20:22:53.256Z,8.10
2018-05-04T20:25:21.724Z,8.10
2018-05-04T20:27:50.157Z,8.10
2018-05-04T20:30:19.352Z,8.20
2018-05-04T20:32:47.778Z,8.20
2018-05-04T20:35:16.236Z,8.20
2018-05-04T20:37:44.697Z,8.10
2018-05-04T20:40:13.051Z,8.00
2018-05-04T20:42:42.203Z,8.00
2018-05-04T20:45:10.723Z,8.00
2018-05-04T20:47:39.899Z,8.00
2018-05-04T20:50:08.273Z,7.90
2018-05-04T20:52:36.709Z,7.80
2018-05-04T20:55:05.102Z,7.70
2018-05-04T20:57:33.481Z,7.60
2018-05-04T21:00:01.899Z,7.50
2018-05-04T21:02:30.540Z,7.30
2018-05-04T21:04:59.050Z,7.20
2018-05-04T21:07:27.498Z,7.10
2018-05-04T21:09:55.878Z,7.10
2018-05-04T21:12:25.080Z,7.00
2018-05-04T21:14:53.532Z,7.00
2018-05-04T21:17:22.836Z,6.80
2018-05-04T21:19:52.031Z,6.70
2018-05-04T21:22:21.217Z,6.60
2018-05-04T21:24:49.639Z,6.60
2018-05-04T21:27:18.041Z,6.50
2018-05-04T21:29:46.450Z,6.40
2018-05-04T21:32:14.957Z,6.30
2018-05-04T21:34:43.638Z,6.20
2018-05-04T21:37:13.154Z,6.30
2018-05-04T21:39:42.036Z,6.20
2018-05-04T21:42:10.640Z,6.20
2018-05-04T21:44:39.109Z,6.30
2018-05-04T21:47:07.564Z,6.10
2018-05-04T21:49:35.976Z,6.10
2018-05-04T21:52:05.266Z,6.20
2018-05-04T21:54:34.375Z,6.10
2018-05-04T21:57:02.744Z,6.10
2018-05-04T21:59:31.936Z,6.00
2018-05-04T22:02:01.114Z,6.00
2018-05-04T22:04:29.518Z,6.00
2018-05-04T22:06:58.736Z,6.00
2018-05-04T22:09:27.219Z,6.00
2018-05-04T22:11:55.649Z,6.00
2018-05-04T22:14:24.016Z,5.90
2018-05-04T22:16:52.385Z,5.90
2018-05-04T22:19:20.872Z,5.90
2018-05-04T22:21:49.412Z,5.90
2018-05-04T22:24:17.782Z,5.90
2018-05-04T22:26:46.845Z,6.00
2018-05-04T22:29:15.171Z,5.90
2018-05-04T22:31:44.241Z,6.00
2018-05-04T22:34:13.528Z,5.90
2018-05-04T22:36:41.866Z,5.90
2018-05-04T22:39:10.216Z,6.00
2018-05-04T22:41:38.595Z,6.00
2018-05-04T22:44:07.738Z,6.00
2018-05-04T22:46:36.170Z,6.00
2018-05-04T22:49:05.288Z,5.80
2018-05-04T22:51:33.750Z,5.80
2018-05-04T22:54:02.249Z,5.80
2018-05-04T22:56:30.627Z,5.80
2018-05-04T22:58:58.944Z,5.90
2018-05-04T23:01:27.458Z,5.90
2018-05-04T23:03:55.817Z,6.00
2018-05-04T23:06:24.129Z,6.10
2018-05-04T23:08:53.450Z,6.10
2018-05-04T23:11:21.979Z,6.10
2018-05-04T23:13:50.335Z,6.10
2018-05-04T23:16:18.680Z,6.00
2018-05-04T23:18:46.976Z,6.00
2018-05-04T23:21:15.390Z,6.10
2018-05-04T23:23:43.853Z,6.10
2018-05-04T23:26:12.199Z,6.20
2018-05-04T23:28:41.366Z,6.30
2018-05-04T23:31:09.656Z,6.20
2018-05-04T23:33:38.800Z,6.20
2018-05-04T23:36:07.102Z,6.10
2018-05-04T23:38:35.530Z,6.10
2018-05-04T23:41:04.586Z,6.00
2018-05-04T23:43:33.094Z,6.00
2018-05-04T23:46:01.481Z,5.90
2018-05-04T23:48:30.608Z,5.90
2018-05-04T23:50:59.046Z,5.90
2018-05-04T23:53:27.504Z,5.90
2018-05-04T23:55:55.839Z,5.80
2018-05-04T23:58:24.302Z,5.70
